createdAt,value
2023-04-01T00:01:07.997Z,20.60
2023-04-01T00:03:35.306Z,14.57
2023-04-01T00:06:02.417Z,15.48
2023-04-01T00:08:29.882Z,21.10
2023-04-01T00:10:56.531Z,17.13
2023-04-01T00:13:23.844Z,14.37
2023-04-01T00:15:50.436Z,16.40
2023-04-01T00:18:17.302Z,16.83
2023-04-01T00:20:45.894Z,19.25
2023-04-01T00:23:12.579Z,17.75
2023-04-01T00:25:39.177Z,16.63
2023-04-01T00:28:05.748Z,19.58
2023-04-01T00:30:32.427Z,14.82
2023-04-01T00:32:58.956Z,16.60
2023-04-01T00:35:25.584Z,20.15
2023-04-01T00:37:52.165Z,17.87
2023-04-01T00:40:40.672Z,17.73
2023-04-01T00:43:13.917Z,17.25
2023-04-01T00:45:43.336Z,15.80
2023-04-01T00:48:32.336Z,13.75
2023-04-01T00:51:07.321Z,14.13
2023-04-01T00:53:37.478Z,15.75
2023-04-01T00:56:08.875Z,15.13
2023-04-01T00:58:42.175Z,11.00
2023-04-01T01:01:10.632Z,16.48
2023-04-01T01:03:37.450Z,14.23
2023-04-01T01:06:12.143Z,15.55
2023-04-01T01:09:08.808Z,17.17
2023-04-01T01:11:44.295Z,18.65
2023-04-01T01:14:53.846Z,23.80
2023-04-01T01:17:29.146Z,23.13
2023-04-01T01:20:25.481Z,28.20
2023-04-01T01:22:58.909Z,26.52
2023-04-01T01:25:36.724Z,23.27
2023-04-01T01:28:41.045Z,21.13
2023-04-01T01:31:17.480Z,18.07
2023-04-01T01:33:56.774Z,24.05
2023-04-01T01:36:27.581Z,27.08
2023-04-01T01:38:55.819Z,23.13
2023-04-01T01:41:26.175Z,20.35
2023-04-01T01:43:56.401Z,17.03
2023-04-01T01:46:27.082Z,17.63
2023-04-01T01:48:55.958Z,20.65
2023-04-01T01:51:23.888Z,15.30
2023-04-01T01:53:50.391Z,12.70
2023-04-01T01:56:20.010Z,16.87
2023-04-01T01:58:50.161Z,16.52
2023-04-01T02:01:21.018Z,18.45
2023-04-01T02:03:49.323Z,16.00
2023-04-01T02:06:19.984Z,18.83
2023-04-01T02:08:57.186Z,18.17
2023-04-01T02:11:30.774Z,19.58
2023-04-01T02:14:02.894Z,17.95
2023-04-01T02:16:37.080Z,24.40
2023-04-01T02:19:07.804Z,22.70
2023-04-01T02:21:36.016Z,24.53
2023-04-01T02:24:06.973Z,25.35
2023-04-01T02:26:33.613Z,27.90
2023-04-01T02:29:00.876Z,29.70
2023-04-01T02:31:28.233Z,26.08
2023-04-01T02:33:55.917Z,21.30
2023-04-01T02:36:22.492Z,24.73
2023-04-01T02:38:50.811Z,22.42
2023-04-01T02:41:17.352Z,27.45
2023-04-01T02:43:43.989Z,23.42
2023-04-01T02:46:10.766Z,30.83
2023-04-01T02:48:37.577Z,25.77
2023-04-01T02:51:04.111Z,28.10
2023-04-01T02:53:30.545Z,30.27
2023-04-01T02:55:57.197Z,28.50
2023-04-01T02:58:23.712Z,26.97
2023-04-01T03:00:50.306Z,29.50
2023-04-01T03:03:16.938Z,32.30
2023-04-01T03:05:43.541Z,42.97
2023-04-01T03:08:10.070Z,40.28
2023-04-01T03:10:36.617Z,42.57
2023-04-01T03:13:03.160Z,39.55
2023-04-01T03:15:29.695Z,35.63
2023-04-01T03:17:56.230Z,30.20
2023-04-01T03:20:22.859Z,30.35
2023-04-01T03:22:49.383Z,24.90
2023-04-01T03:25:16.147Z,30.75
2023-04-01T03:27:42.609Z,37.08
2023-04-01T03:30:09.898Z,28.98
2023-04-01T03:32:36.436Z,29.98
2023-04-01T03:35:03.078Z,27.63
2023-04-01T03:37:29.537Z,29.77
2023-04-01T03:39:56.227Z,34.65
2023-04-01T03:42:22.786Z,31.23
2023-04-01T03:44:49.225Z,33.83
2023-04-01T03:47:16.105Z,32.43
2023-04-01T03:49:42.736Z,33.35
2023-04-01T03:52:11.388Z,21.17
2023-04-01T03:54:38.369Z,27.50
2023-04-01T03:57:04.916Z,25.58
2023-04-01T03:59:31.611Z,24.67
2023-04-01T04:01:58.177Z,26.35
2023-04-01T04:04:25.150Z,24.58
2023-04-01T04:06:51.874Z,22.60
2023-04-01T04:09:18.371Z,21.05
2023-04-01T04:11:44.912Z,23.20
2023-04-01T04:14:11.541Z,24.77
2023-04-01T04:16:38.415Z,19.63
2023-04-01T04:19:05.112Z,21.30
2023-04-01T04:21:31.707Z,16.48
2023-04-01T04:24:00.266Z,19.63
2023-04-01T04:26:27.344Z,18.40
2023-04-01T04:28:55.380Z,19.92
2023-04-01T04:31:26.469Z,24.25
2023-04-01T04:33:53.973Z,25.30
2023-04-01T04:36:21.672Z,23.73
2023-04-01T04:38:48.898Z,26.23
2023-04-01T04:41:17.451Z,22.27
2023-04-01T04:43:50.552Z,25.65
2023-04-01T04:46:17.122Z,25.08
2023-04-01T04:48:43.750Z,28.07
2023-04-01T04:51:14.675Z,22.63
2023-04-01T04:53:41.271Z,23.98
2023-04-01T04:56:07.838Z,23.27
2023-04-01T04:58:34.445Z,18.42
2023-04-01T05:01:07.242Z,22.03
2023-04-01T05:03:33.905Z,23.30
2023-04-01T05:06:00.521Z,26.50
2023-04-01T05:08:26.962Z,25.77
2023-04-01T05:10:53.532Z,24.15
2023-04-01T05:13:20.249Z,23.03
2023-04-01T05:15:47.010Z,23.35
2023-04-01T05:18:13.598Z,18.73
2023-04-01T05:20:40.264Z,24.42
2023-04-01T05:23:06.709Z,24.27
2023-04-01T05:25:33.306Z,23.37
2023-04-01T05:28:00.084Z,26.00
2023-04-01T05:30:26.618Z,20.58
2023-04-01T05:32:53.264Z,24.63
2023-04-01T05:35:19.975Z,22.85
2023-04-01T05:37:46.443Z,21.97
2023-04-01T05:40:13.053Z,20.73
2023-04-01T05:42:39.565Z,18.55
2023-04-01T05:45:06.867Z,20.80
2023-04-01T05:47:33.581Z,26.35
2023-04-01T05:50:00.195Z,25.20
2023-04-01T05:52:26.734Z,27.25
2023-04-01T05:54:53.372Z,35.20
2023-04-01T05:57:20.001Z,43.17
2023-04-01T05:59:46.692Z,34.92
2023-04-01T06:02:13.559Z,31.20
2023-04-01T06:04:41.504Z,22.58
2023-04-01T06:07:15.912Z,29.77
2023-04-01T06:09:43.835Z,24.55
2023-04-01T06:12:41.036Z,26.98
2023-04-01T06:15:44.537Z,28.67
2023-04-01T06:18:41.547Z,44.80
2023-04-01T06:21:34.361Z,45.85
2023-04-01T06:24:07.038Z,56.95
2023-04-01T06:27:05.564Z,49.05
2023-04-01T06:29:48.283Z,52.53
2023-04-01T06:32:27.123Z,57.72
2023-04-01T06:34:53.565Z,72.05
2023-04-01T06:37:38.549Z,47.97
2023-04-01T06:40:20.186Z,67.35
2023-04-01T06:43:08.328Z,61.60
2023-04-01T06:46:06.684Z,65.93
2023-04-01T06:48:54.911Z,63.42
2023-04-01T06:51:47.551Z,53.60
2023-04-01T06:54:29.845Z,62.47
2023-04-01T06:57:03.508Z,42.87
2023-04-01T06:59:34.345Z,55.33
2023-04-01T07:02:10.752Z,50.60
2023-04-01T07:04:43.218Z,57.65
2023-04-01T07:07:28.369Z,60.72
2023-04-01T07:09:58.655Z,53.00
2023-04-01T07:12:34.202Z,62.83
2023-04-01T07:15:18.346Z,50.47
2023-04-01T07:17:48.133Z,63.35
2023-04-01T07:20:17.688Z,62.47
2023-04-01T07:22:50.717Z,61.53
2023-04-01T07:25:40.591Z,52.80
2023-04-01T07:28:13.488Z,51.58
2023-04-01T07:30:54.010Z,50.10
2023-04-01T07:33:54.518Z,49.78
2023-04-01T07:36:30.094Z,60.93
2023-04-01T07:39:14.764Z,48.08
2023-04-01T07:41:52.035Z,50.40
2023-04-01T07:44:32.252Z,42.55
2023-04-01T07:47:12.256Z,44.03
2023-04-01T07:50:00.616Z,36.27
2023-04-01T07:52:45.137Z,39.38
2023-04-01T07:55:25.824Z,45.90
2023-04-01T07:57:52.549Z,40.45
2023-04-01T08:00:28.336Z,39.38
2023-04-01T08:03:07.595Z,41.70
2023-04-01T08:05:52.572Z,43.13
2023-04-01T08:08:21.852Z,44.55
2023-04-01T08:10:56.066Z,47.17
2023-04-01T08:13:37.145Z,43.63
2023-04-01T08:16:06.614Z,42.70
2023-04-01T08:18:45.322Z,47.78
2023-04-01T08:21:39.743Z,46.50
2023-04-01T08:24:27.854Z,43.90
2023-04-01T08:27:00.024Z,42.03
2023-04-01T08:29:55.856Z,37.40
2023-04-01T08:32:40.732Z,35.25
2023-04-01T08:35:33.361Z,37.08
2023-04-01T08:38:07.621Z,42.95
2023-04-01T08:40:52.558Z,39.42
2023-04-01T08:43:44.188Z,38.70
2023-04-01T08:46:45.149Z,42.58
2023-04-01T08:49:30.040Z,43.97
2023-04-01T08:52:08.687Z,44.45
2023-04-01T08:55:01.147Z,45.90
2023-04-01T08:57:46.152Z,39.50
2023-04-01T09:00:12.692Z,40.70
2023-04-01T09:02:41.954Z,43.15
2023-04-01T09:05:32.201Z,35.08
2023-04-01T09:08:36.403Z,40.67
2023-04-01T09:11:22.397Z,36.33
2023-04-01T09:13:51.824Z,33.22
2023-04-01T09:16:59.580Z,28.27
2023-04-01T09:19:29.057Z,27.25
2023-04-01T09:22:11.275Z,25.77
2023-04-01T09:24:43.949Z,24.63
2023-04-01T09:27:38.995Z,25.55
2023-04-01T09:30:30.061Z,23.80
2023-04-01T09:33:27.643Z,19.13
2023-04-01T09:36:19.521Z,22.58
2023-04-01T09:38:58.335Z,21.33
2023-04-01T09:41:32.511Z,18.20
2023-04-01T09:44:11.139Z,15.73
2023-04-01T09:46:53.095Z,19.23
2023-04-01T09:49:27.260Z,18.42
2023-04-01T09:52:06.011Z,17.17
2023-04-01T09:54:41.241Z,21.92
2023-04-01T09:57:23.491Z,19.25
2023-04-01T10:00:11.558Z,19.00
2023-04-01T10:02:53.362Z,18.13
2023-04-01T10:05:53.067Z,19.07
2023-04-01T10:08:41.612Z,15.23
2023-04-01T10:11:17.163Z,18.65
2023-04-01T10:14:08.336Z,16.67
2023-04-01T10:16:52.721Z,16.35
2023-04-01T10:20:11.287Z,15.03
2023-04-01T10:22:59.838Z,14.32
2023-04-01T10:25:32.346Z,15.90
2023-04-01T10:27:59.007Z,12.85
2023-04-01T10:30:43.991Z,12.75
2023-04-01T10:33:47.923Z,12.90
2023-04-01T10:36:55.937Z,11.52
2023-04-01T10:39:40.825Z,11.30
2023-04-01T10:42:29.308Z,13.68
2023-04-01T10:45:10.992Z,12.95
2023-04-01T10:47:40.545Z,13.20
2023-04-01T10:50:45.569Z,14.05
2023-04-01T10:53:40.027Z,12.35
2023-04-01T10:56:25.508Z,16.63
2023-04-01T10:59:04.195Z,16.75
2023-04-01T11:02:10.002Z,16.50
2023-04-01T11:04:52.829Z,16.25
2023-04-01T11:07:31.499Z,17.27
2023-04-01T11:10:37.006Z,16.40
2023-04-01T11:13:41.335Z,21.35
2023-04-01T11:16:07.846Z,21.93
2023-04-01T11:18:53.057Z,20.40
2023-04-01T11:21:52.685Z,20.60
2023-04-01T11:24:40.641Z,20.65
2023-04-01T11:27:47.751Z,19.33
2023-04-01T11:30:37.531Z,25.17
2023-04-01T11:33:39.418Z,24.05
2023-04-01T11:36:22.356Z,24.73
2023-04-01T11:38:59.994Z,30.77
2023-04-01T11:41:51.456Z,29.17
2023-04-01T11:44:19.895Z,27.37
2023-04-01T11:46:52.267Z,27.00
2023-04-01T11:49:53.507Z,28.95
2023-04-01T11:52:32.237Z,29.98
2023-04-01T11:55:19.154Z,26.80
2023-04-01T11:58:07.601Z,30.93
2023-04-01T12:00:40.237Z,29.13
2023-04-01T12:03:34.734Z,26.27
2023-04-01T12:06:23.216Z,26.48
2023-04-01T12:08:56.243Z,23.27
2023-04-01T12:11:31.853Z,21.43
2023-04-01T12:14:12.075Z,20.52
2023-04-01T12:16:46.844Z,13.95
2023-04-01T12:19:25.623Z,14.25
2023-04-01T12:22:13.516Z,13.93
2023-04-01T12:24:46.896Z,13.57
2023-04-01T12:27:44.027Z,12.52
2023-04-01T12:30:41.871Z,13.23
2023-04-01T12:33:30.576Z,14.20
2023-04-01T12:36:15.338Z,13.98
2023-04-01T12:39:19.393Z,16.23
2023-04-01T12:42:20.165Z,14.80
2023-04-01T12:45:17.213Z,14.43
2023-04-01T12:47:43.754Z,13.50
2023-04-01T12:50:24.847Z,14.02
2023-04-01T12:53:22.717Z,15.80
2023-04-01T12:55:50.257Z,16.98
2023-04-01T12:58:32.915Z,16.13
2023-04-01T13:01:08.953Z,17.15
2023-04-01T13:03:50.515Z,17.58
2023-04-01T13:06:51.296Z,17.53
2023-04-01T13:09:27.133Z,18.33
2023-04-01T13:12:34.961Z,19.17
2023-04-01T13:15:23.074Z,18.05
2023-04-01T13:18:01.541Z,17.25
2023-04-01T13:20:37.040Z,19.50
2023-04-01T13:23:22.152Z,19.88
2023-04-01T13:26:15.255Z,19.55
2023-04-01T13:28:53.774Z,20.45
2023-04-01T13:31:26.230Z,14.70
2023-04-01T13:34:27.982Z,18.20
2023-04-01T13:37:20.474Z,18.63
2023-04-01T13:39:59.171Z,17.77
2023-04-01T13:42:38.810Z,17.42
2023-04-01T13:45:25.201Z,17.95
2023-04-01T13:48:22.865Z,16.47
2023-04-01T13:51:08.087Z,18.33
2023-04-01T13:53:49.787Z,18.25
2023-04-01T13:56:30.954Z,22.92
2023-04-01T13:59:03.459Z,22.27
2023-04-01T14:01:43.884Z,19.00
2023-04-01T14:04:25.638Z,19.75
2023-04-01T14:07:10.519Z,19.73
2023-04-01T14:10:06.101Z,19.20
2023-04-01T14:13:04.268Z,16.05
2023-04-01T14:15:51.773Z,22.20
2023-04-01T14:18:43.466Z,20.63
2023-04-01T14:21:26.302Z,20.02
2023-04-01T14:24:09.813Z,19.05
2023-04-01T14:26:42.376Z,18.15
2023-04-01T14:29:17.617Z,19.40
2023-04-01T14:32:07.547Z,17.85
2023-04-01T14:34:34.218Z,16.92
2023-04-01T14:37:21.752Z,16.95
2023-04-01T14:40:13.044Z,14.45
2023-04-01T14:43:21.752Z,11.17
2023-04-01T14:45:58.968Z,11.13
2023-04-01T14:48:28.293Z,12.27
2023-04-01T14:51:03.137Z,13.40
2023-04-01T14:53:35.563Z,15.30
2023-04-01T14:56:03.785Z,14.87
2023-04-01T14:59:02.611Z,19.05
2023-04-01T15:01:41.080Z,18.08
2023-04-01T15:04:29.015Z,20.08
2023-04-01T15:07:04.972Z,24.83
2023-04-01T15:09:49.954Z,28.67
2023-04-01T15:12:34.182Z,29.25
2023-04-01T15:15:27.056Z,29.95
2023-04-01T15:18:17.560Z,32.90
2023-04-01T15:20:50.117Z,32.25
2023-04-01T15:23:32.502Z,33.53
2023-04-01T15:26:46.918Z,35.78
2023-04-01T15:29:29.121Z,37.53
2023-04-01T15:32:21.792Z,35.70
2023-04-01T15:34:48.379Z,34.47
2023-04-01T15:37:38.104Z,36.43
2023-04-01T15:40:26.530Z,36.17
2023-04-01T15:43:01.445Z,29.33
2023-04-01T15:45:47.672Z,26.30
2023-04-01T15:48:26.072Z,32.90
2023-04-01T15:51:14.599Z,24.60
2023-04-01T15:54:02.582Z,26.55
2023-04-01T15:56:48.257Z,28.23
2023-04-01T15:59:31.818Z,27.58
2023-04-01T16:02:13.943Z,31.13
2023-04-01T16:05:02.063Z,30.23
2023-04-01T16:07:55.861Z,26.20
2023-04-01T16:10:51.566Z,26.65
2023-04-01T16:13:44.136Z,29.90
2023-04-01T16:16:37.139Z,36.63
2023-04-01T16:19:30.123Z,35.67
2023-04-01T16:22:06.517Z,36.88
2023-04-01T16:24:45.486Z,39.67
2023-04-01T16:27:15.029Z,36.90
2023-04-01T16:29:54.242Z,42.70
2023-04-01T16:32:35.994Z,36.17
2023-04-01T16:35:44.311Z,42.60
2023-04-01T16:38:19.712Z,42.72
2023-04-01T16:40:46.244Z,36.10
2023-04-01T16:43:36.952Z,36.35
2023-04-01T16:46:22.127Z,39.70
2023-04-01T16:49:25.023Z,44.47
2023-04-01T16:52:09.824Z,43.20
2023-04-01T16:54:54.200Z,41.72
2023-04-01T16:57:32.486Z,39.90
2023-04-01T17:00:30.237Z,31.83
2023-04-01T17:03:13.928Z,32.17
2023-04-01T17:05:51.933Z,36.88
2023-04-01T17:08:22.622Z,33.65
2023-04-01T17:10:53.591Z,36.08
2023-04-01T17:13:34.799Z,43.90
2023-04-01T17:16:07.345Z,42.00
2023-04-01T17:18:48.252Z,38.95
2023-04-01T17:21:23.584Z,36.15
2023-04-01T17:24:03.480Z,41.03
2023-04-01T17:27:10.174Z,39.30
2023-04-01T17:30:15.664Z,38.25
2023-04-01T17:33:11.536Z,39.92
2023-04-01T17:36:00.133Z,36.30
2023-04-01T17:38:54.554Z,30.85
2023-04-01T17:41:32.272Z,32.10
2023-04-01T17:44:17.500Z,23.70
2023-04-01T17:46:46.762Z,25.92
2023-04-01T17:49:31.516Z,23.70
2023-04-01T17:52:26.899Z,21.20
2023-04-01T17:55:05.221Z,19.50
2023-04-01T17:57:47.737Z,17.63
2023-04-01T18:00:42.210Z,17.85
2023-04-01T18:03:26.542Z,22.67
2023-04-01T18:06:20.534Z,18.13
2023-04-01T18:09:14.600Z,23.83
2023-04-01T18:11:55.373Z,22.58
2023-04-01T18:14:49.853Z,20.58
2023-04-01T18:17:25.449Z,25.23
2023-04-01T18:20:00.871Z,25.90
2023-04-01T18:22:41.084Z,22.33
2023-04-01T18:25:42.999Z,22.17
2023-04-01T18:28:31.971Z,19.98
2023-04-01T18:31:08.006Z,21.10
2023-04-01T18:33:47.936Z,20.88
2023-04-01T18:36:42.542Z,19.93
2023-04-01T18:39:13.615Z,19.45
2023-04-01T18:42:23.569Z,19.42
2023-04-01T18:45:16.064Z,15.85
2023-04-01T18:47:46.414Z,17.38
2023-04-01T18:50:31.708Z,20.70
2023-04-01T18:53:11.054Z,15.60
2023-04-01T18:55:47.712Z,16.38
2023-04-01T18:58:41.958Z,14.70
2023-04-01T19:01:21.260Z,17.00
2023-04-01T19:04:09.746Z,17.53
2023-04-01T19:06:46.691Z,16.25
2023-04-01T19:09:17.938Z,15.57
2023-04-01T19:11:53.617Z,15.63
2023-04-01T19:14:43.074Z,16.02
2023-04-01T19:17:42.161Z,16.03
2023-04-01T19:20:33.857Z,18.50
2023-04-01T19:23:28.500Z,18.33
2023-04-01T19:25:57.870Z,16.42
2023-04-01T19:28:27.308Z,17.73
2023-04-01T19:31:22.149Z,20.87
2023-04-01T19:34:33.810Z,22.92
2023-04-01T19:37:09.579Z,18.85
2023-04-01T19:39:58.124Z,17.83
2023-04-01T19:43:01.777Z,19.27
2023-04-01T19:46:00.201Z,16.37
2023-04-01T19:48:44.707Z,19.20
2023-04-01T19:51:35.666Z,17.15
2023-04-01T19:54:14.841Z,17.60
2023-04-01T19:57:13.971Z,20.35
2023-04-01T19:59:47.548Z,27.43
2023-04-01T20:02:38.228Z,33.30
2023-04-01T20:05:25.565Z,21.70
2023-04-01T20:08:16.273Z,16.88
2023-04-01T20:10:55.095Z,20.55
2023-04-01T20:13:47.764Z,19.13
2023-04-01T20:16:16.261Z,20.05
2023-04-01T20:19:00.035Z,26.55
2023-04-01T20:21:38.764Z,23.27
2023-04-01T20:24:14.397Z,22.70
2023-04-01T20:26:47.399Z,25.50
2023-04-01T20:29:23.185Z,27.55
2023-04-01T20:32:05.156Z,22.83
2023-04-01T20:34:41.082Z,21.73
2023-04-01T20:37:38.693Z,20.35
2023-04-01T20:40:33.281Z,19.70
2023-04-01T20:43:29.176Z,21.65
2023-04-01T20:46:19.840Z,20.60
2023-04-01T20:49:15.894Z,20.40
2023-04-01T20:51:57.692Z,22.00
2023-04-01T20:54:42.887Z,19.17
2023-04-01T20:57:19.047Z,21.00
2023-04-01T20:59:55.037Z,20.33
2023-04-01T21:02:57.279Z,20.10
2023-04-01T21:05:45.760Z,24.05
2023-04-01T21:08:17.047Z,24.43
2023-04-01T21:11:05.894Z,22.20
2023-04-01T21:13:47.223Z,21.42
2023-04-01T21:16:41.195Z,21.90
2023-04-01T21:19:46.498Z,22.58
2023-04-01T21:22:12.989Z,19.87
2023-04-01T21:25:19.909Z,21.75
2023-04-01T21:28:11.751Z,23.15
2023-04-01T21:30:50.187Z,22.90
2023-04-01T21:33:16.729Z,24.75
2023-04-01T21:36:04.850Z,27.57
2023-04-01T21:38:44.852Z,25.60
2023-04-01T21:41:39.232Z,27.25
2023-04-01T21:44:32.846Z,26.08
2023-04-01T21:47:24.625Z,25.35
2023-04-01T21:50:12.650Z,25.20
2023-04-01T21:53:03.985Z,26.38
2023-04-01T21:55:59.945Z,29.08
2023-04-01T21:59:17.706Z,25.92
2023-04-01T22:02:09.212Z,24.38
2023-04-01T22:04:35.702Z,25.13
2023-04-01T22:07:02.076Z,25.20
2023-04-01T22:09:45.426Z,23.85
2023-04-01T22:12:21.643Z,24.00
2023-04-01T22:15:08.138Z,25.58
2023-04-01T22:17:58.004Z,25.43
2023-04-01T22:20:52.459Z,23.15
2023-04-01T22:23:32.530Z,23.33
2023-04-01T22:26:30.734Z,25.35
2023-04-01T22:29:08.765Z,23.90
2023-04-01T22:31:59.283Z,24.33
2023-04-01T22:34:28.762Z,25.40
2023-04-01T22:37:13.419Z,24.60
2023-04-01T22:39:46.519Z,23.60
2023-04-01T22:42:41.493Z,24.63
2023-04-01T22:45:24.222Z,24.43
2023-04-01T22:48:02.393Z,25.58
2023-04-01T22:51:04.324Z,26.63
2023-04-01T22:53:53.576Z,25.20
2023-04-01T22:56:29.003Z,23.98
2023-04-01T22:59:07.096Z,26.97
2023-04-01T23:01:46.506Z,26.85
2023-04-01T23:04:17.491Z,23.13
2023-04-01T23:06:57.604Z,26.17
2023-04-01T23:09:30.261Z,24.27
2023-04-01T23:12:02.226Z,22.17
2023-04-01T23:14:36.110Z,22.73
2023-04-01T23:17:24.216Z,20.30
2023-04-01T23:20:14.958Z,20.75
2023-04-01T23:23:04.520Z,19.20
2023-04-01T23:25:45.905Z,20.47
2023-04-01T23:28:15.546Z,17.50
2023-04-01T23:30:42.036Z,20.15
2023-04-01T23:33:20.792Z,22.60
2023-04-01T23:35:48.222Z,24.08
2023-04-01T23:38:15.586Z,23.13
2023-04-01T23:40:42.459Z,24.50
2023-04-01T23:43:25.828Z,23.15
2023-04-01T23:45:54.038Z,22.92
2023-04-01T23:48:31.756Z,22.75
2023-04-01T23:50:59.496Z,22.07
2023-04-01T23:53:29.818Z,21.88
2023-04-01T23:55:56.711Z,24.13
2023-04-01T23:58:26.209Z,24.02
